createdAt,value
2017-10-20T00:00:54.393Z,56.70
2017-10-20T00:03:21.970Z,52.57
2017-10-20T00:05:49.520Z,51.03
2017-10-20T00:08:16.994Z,53.20
2017-10-20T00:10:45.245Z,52.33
2017-10-20T00:13:12.727Z,50.60
2017-10-20T00:15:40.988Z,57.00
2017-10-20T00:18:08.496Z,52.33
2017-10-20T00:20:35.966Z,54.53
2017-10-20T00:23:03.443Z,51.23
2017-10-20T00:25:30.922Z,54.80
2017-10-20T00:27:58.398Z,53.90
2017-10-20T00:30:25.894Z,45.03
2017-10-20T00:32:53.411Z,45.03
2017-10-20T00:35:21.650Z,47.43
2017-10-20T00:37:49.232Z,52.60
2017-10-20T00:40:16.700Z,47.40
2017-10-20T00:42:44.939Z,47.80
2017-10-20T00:45:12.410Z,45.67
2017-10-20T00:47:39.966Z,45.63
2017-10-20T00:50:07.451Z,45.27
2017-10-20T00:52:35.688Z,48.33
2017-10-20T00:55:03.265Z,44.60
2017-10-20T00:57:30.738Z,40.43
2017-10-20T00:59:58.988Z,41.23
2017-10-20T01:02:26.465Z,50.30
2017-10-20T01:04:54.703Z,43.53
2017-10-20T01:07:22.183Z,46.07
2017-10-20T01:09:50.461Z,42.60
2017-10-20T01:12:18.707Z,46.03
2017-10-20T01:14:46.180Z,40.30
2017-10-20T01:17:13.734Z,37.23
2017-10-20T01:19:41.209Z,39.77
2017-10-20T01:22:08.681Z,39.30
2017-10-20T01:24:36.924Z,40.00
2017-10-20T01:27:04.424Z,43.00
2017-10-20T01:29:32.678Z,37.70
2017-10-20T01:32:00.147Z,41.03
2017-10-20T01:34:28.397Z,42.90
2017-10-20T01:36:55.867Z,43.13
2017-10-20T01:39:24.114Z,38.63
2017-10-20T01:41:51.705Z,41.03
2017-10-20T01:44:19.964Z,37.20
2017-10-20T01:46:47.432Z,42.00
2017-10-20T01:49:15.702Z,41.70
2017-10-20T01:51:43.978Z,37.37
2017-10-20T01:54:11.463Z,38.90
2017-10-20T01:56:39.061Z,44.05
2017-10-20T01:59:06.652Z,47.20
2017-10-20T02:01:34.214Z,37.50
2017-10-20T02:04:01.683Z,39.03
2017-10-20T02:06:29.207Z,40.23
2017-10-20T02:08:56.685Z,44.20
2017-10-20T02:11:24.163Z,40.43
2017-10-20T02:13:51.642Z,38.83
2017-10-20T02:16:19.114Z,38.33
2017-10-20T02:18:46.591Z,53.73
2017-10-20T02:21:14.168Z,37.97
2017-10-20T02:23:41.638Z,42.27
2017-10-20T02:26:09.882Z,44.17
2017-10-20T02:28:37.367Z,36.53
2017-10-20T02:31:04.913Z,41.10
2017-10-20T02:33:33.193Z,44.13
2017-10-20T02:36:01.580Z,36.15
2017-10-20T02:38:29.852Z,43.63
2017-10-20T02:40:58.086Z,38.15
2017-10-20T02:43:25.561Z,40.50
2017-10-20T02:45:53.136Z,38.15
2017-10-20T02:48:21.384Z,44.20
2017-10-20T02:50:48.856Z,41.78
2017-10-20T02:53:16.337Z,39.40
2017-10-20T02:55:44.591Z,40.45
2017-10-20T02:58:12.066Z,36.45
2017-10-20T03:00:40.325Z,37.03
2017-10-20T03:03:07.941Z,40.12
2017-10-20T03:05:35.454Z,47.62
2017-10-20T03:08:03.724Z,42.03
2017-10-20T03:10:31.226Z,38.97
2017-10-20T03:12:58.737Z,32.20
2017-10-20T03:15:26.310Z,46.40
2017-10-20T03:17:54.627Z,41.05
2017-10-20T03:20:22.101Z,39.85
2017-10-20T03:22:49.577Z,41.55
2017-10-20T03:25:17.145Z,38.45
2017-10-20T03:27:44.760Z,42.38
2017-10-20T03:30:12.266Z,39.20
2017-10-20T03:32:39.822Z,44.80
2017-10-20T03:35:07.303Z,39.20
2017-10-20T03:37:35.538Z,39.65
2017-10-20T03:40:03.056Z,42.55
2017-10-20T03:42:30.574Z,40.88
2017-10-20T03:44:58.849Z,38.72
2017-10-20T03:47:26.330Z,40.38
2017-10-20T03:49:53.874Z,36.85
2017-10-20T03:52:22.145Z,36.15
2017-10-20T03:54:50.413Z,42.45
2017-10-20T03:57:17.923Z,43.45
2017-10-20T03:59:45.433Z,40.88
2017-10-20T04:02:12.911Z,41.75
2017-10-20T04:04:40.395Z,39.80
2017-10-20T04:07:07.887Z,46.17
2017-10-20T04:09:35.361Z,44.47
2017-10-20T04:12:03.625Z,42.88
2017-10-20T04:14:31.111Z,41.40
2017-10-20T04:16:58.593Z,42.22
2017-10-20T04:19:26.062Z,42.42
2017-10-20T04:21:53.545Z,48.72
2017-10-20T04:24:21.018Z,38.47
2017-10-20T04:26:48.502Z,41.97
2017-10-20T04:29:15.979Z,37.35
2017-10-20T04:31:43.462Z,40.80
2017-10-20T04:34:10.937Z,38.65
2017-10-20T04:36:38.579Z,40.08
2017-10-20T04:39:06.059Z,49.47
2017-10-20T04:41:33.538Z,39.25
2017-10-20T04:44:01.805Z,38.00
2017-10-20T04:46:30.070Z,42.33
2017-10-20T04:48:57.625Z,42.58
2017-10-20T04:51:25.099Z,37.15
2017-10-20T04:53:53.366Z,42.70
2017-10-20T04:56:21.619Z,42.42
2017-10-20T04:58:49.101Z,37.78
2017-10-20T05:01:17.362Z,39.17
2017-10-20T05:03:44.841Z,45.08
2017-10-20T05:06:13.094Z,42.83
2017-10-20T05:08:40.602Z,44.58
2017-10-20T05:11:08.171Z,43.10
2017-10-20T05:13:35.649Z,36.55
2017-10-20T05:16:03.127Z,45.80
2017-10-20T05:18:31.409Z,45.00
2017-10-20T05:20:59.674Z,42.88
2017-10-20T05:23:27.250Z,42.47
2017-10-20T05:25:55.526Z,40.63
2017-10-20T05:28:23.849Z,41.90
2017-10-20T05:30:51.317Z,44.15
2017-10-20T05:33:18.809Z,45.17
2017-10-20T05:35:46.373Z,47.13
2017-10-20T05:38:13.925Z,38.58
2017-10-20T05:40:41.402Z,38.67
2017-10-20T05:43:09.712Z,41.60
2017-10-20T05:45:37.189Z,45.70
2017-10-20T05:48:04.670Z,39.03
2017-10-20T05:50:32.158Z,42.72
2017-10-20T05:52:59.634Z,43.20
2017-10-20T05:55:27.147Z,43.40
2017-10-20T05:57:54.720Z,44.45
2017-10-20T06:00:23.053Z,44.10
2017-10-20T06:02:50.542Z,42.95
2017-10-20T06:05:18.006Z,38.85
2017-10-20T06:07:46.266Z,40.70
2017-10-20T06:10:13.835Z,38.40
2017-10-20T06:12:42.078Z,45.88
2017-10-20T06:15:09.558Z,45.17
2017-10-20T06:17:40.646Z,51.15
2017-10-20T06:20:08.128Z,39.75
2017-10-20T06:22:35.614Z,39.38
2017-10-20T06:25:03.091Z,43.20
2017-10-20T06:27:31.346Z,39.75
2017-10-20T06:29:58.827Z,44.53
2017-10-20T06:32:26.306Z,42.92
2017-10-20T06:34:53.818Z,37.33
2017-10-20T06:37:21.294Z,35.85
2017-10-20T06:39:49.534Z,37.72
2017-10-20T06:42:17.015Z,43.50
2017-10-20T06:44:45.258Z,38.58
2017-10-20T06:47:12.740Z,42.30
2017-10-20T06:49:40.297Z,40.60
2017-10-20T06:52:07.769Z,33.08
2017-10-20T06:54:36.018Z,41.57
2017-10-20T06:57:03.588Z,35.90
2017-10-20T06:59:31.180Z,39.58
2017-10-20T07:01:58.658Z,42.65
2017-10-20T07:04:26.166Z,42.13
2017-10-20T07:06:53.633Z,38.67
2017-10-20T07:09:21.911Z,40.53
2017-10-20T07:11:50.161Z,48.57
2017-10-20T07:14:17.635Z,43.57
2017-10-20T07:16:45.880Z,46.80
2017-10-20T07:19:17.133Z,39.40
2017-10-20T07:21:44.618Z,33.20
2017-10-20T07:24:12.893Z,44.53
2017-10-20T07:26:41.229Z,53.80
2017-10-20T07:29:08.703Z,45.80
2017-10-20T07:31:36.178Z,43.30
2017-10-20T07:34:03.648Z,38.53
2017-10-20T07:36:31.892Z,41.90
2017-10-20T07:38:59.362Z,38.97
2017-10-20T07:41:26.938Z,46.83
2017-10-20T07:43:55.174Z,43.37
2017-10-20T07:46:22.646Z,37.07
2017-10-20T07:48:50.214Z,35.30
2017-10-20T07:51:17.687Z,30.23
2017-10-20T07:53:45.930Z,32.17
2017-10-20T07:56:13.417Z,39.70
2017-10-20T07:58:41.651Z,41.50
2017-10-20T08:01:09.173Z,35.60
2017-10-20T08:03:36.690Z,33.67
2017-10-20T08:06:04.250Z,36.80
2017-10-20T08:08:32.485Z,37.30
2017-10-20T08:10:59.952Z,40.97
2017-10-20T08:13:27.426Z,44.07
2017-10-20T08:15:54.903Z,36.10
2017-10-20T08:18:22.389Z,34.33
2017-10-20T08:20:49.917Z,34.33
2017-10-20T08:23:17.469Z,36.80
2017-10-20T08:25:44.940Z,30.20
2017-10-20T08:28:13.208Z,40.30
2017-10-20T08:30:40.678Z,34.93
2017-10-20T08:33:09.326Z,36.80
2017-10-20T08:35:36.808Z,30.30
2017-10-20T08:38:05.993Z,35.77
2017-10-20T08:40:33.477Z,31.43
2017-10-20T08:43:01.745Z,26.90
2017-10-20T08:45:30.015Z,30.43
2017-10-20T08:47:58.242Z,30.67
2017-10-20T08:50:25.746Z,32.90
2017-10-20T08:52:53.222Z,29.97
2017-10-20T08:55:21.486Z,32.80
2017-10-20T08:57:49.745Z,29.77
2017-10-20T09:00:17.313Z,32.57
2017-10-20T09:02:45.550Z,32.77
2017-10-20T09:05:13.048Z,35.20
2017-10-20T09:07:40.519Z,33.03
2017-10-20T09:10:08.776Z,31.40
2017-10-20T09:12:36.252Z,32.57
2017-10-20T09:15:04.488Z,32.07
2017-10-20T09:17:31.959Z,40.30
2017-10-20T09:19:59.462Z,31.90
2017-10-20T09:22:26.943Z,28.30
2017-10-20T09:24:54.417Z,36.93
2017-10-20T09:27:21.986Z,29.20
2017-10-20T09:29:50.982Z,28.10
2017-10-20T09:32:18.461Z,27.63
2017-10-20T09:34:46.731Z,30.53
2017-10-20T09:37:15.010Z,32.97
2017-10-20T09:39:43.249Z,29.73
2017-10-20T09:42:10.758Z,32.30
2017-10-20T09:44:38.222Z,30.00
2017-10-20T09:47:05.738Z,31.73
2017-10-20T09:49:33.210Z,32.67
2017-10-20T09:52:01.473Z,30.70
2017-10-20T09:54:29.001Z,34.10
2017-10-20T09:56:56.490Z,42.40
2017-10-20T09:59:24.795Z,41.93
2017-10-20T10:01:52.262Z,26.30
2017-10-20T10:04:19.795Z,28.70
2017-10-20T10:06:48.051Z,30.87
2017-10-20T10:09:15.534Z,30.30
2017-10-20T10:11:43.793Z,30.37
2017-10-20T10:14:12.038Z,32.80
2017-10-20T10:16:39.530Z,30.60
2017-10-20T10:19:07.839Z,32.80
2017-10-20T10:21:35.354Z,28.13
2017-10-20T10:24:02.845Z,32.33
2017-10-20T10:26:30.361Z,26.27
2017-10-20T10:28:57.922Z,29.77
2017-10-20T10:31:25.428Z,31.33
2017-10-20T10:33:52.951Z,34.63
2017-10-20T10:36:21.192Z,33.43
2017-10-20T10:38:48.687Z,30.80
2017-10-20T10:41:16.941Z,29.57
2017-10-20T10:43:44.411Z,35.70
2017-10-20T10:46:12.685Z,31.60
2017-10-20T10:48:40.933Z,37.77
2017-10-20T10:51:08.413Z,32.20
2017-10-20T10:53:35.899Z,33.50
2017-10-20T10:56:03.401Z,30.73
2017-10-20T10:58:30.867Z,31.27
2017-10-20T11:00:58.342Z,32.80
2017-10-20T11:03:25.898Z,33.67
2017-10-20T11:06:06.917Z,32.53
2017-10-20T11:08:46.328Z,35.80
2017-10-20T11:11:26.593Z,34.80
2017-10-20T11:13:54.837Z,30.67
2017-10-20T11:16:22.364Z,41.90
2017-10-20T11:18:49.904Z,35.50
2017-10-20T11:21:17.377Z,32.20
2017-10-20T11:23:44.841Z,30.20
2017-10-20T11:26:12.431Z,36.60
2017-10-20T11:28:39.914Z,35.70
2017-10-20T11:31:07.387Z,32.97
2017-10-20T11:33:34.901Z,34.37
2017-10-20T11:36:03.151Z,34.87
2017-10-20T11:38:30.627Z,36.90
2017-10-20T11:40:59.882Z,53.73
2017-10-20T11:43:27.362Z,50.40
2017-10-20T11:45:54.841Z,38.90
2017-10-20T11:48:22.326Z,33.93
2017-10-20T11:50:50.574Z,39.03
2017-10-20T11:53:18.057Z,39.20
2017-10-20T11:55:45.525Z,39.77
2017-10-20T11:58:13.046Z,38.67
2017-10-20T12:00:40.514Z,35.47
2017-10-20T12:03:09.138Z,35.83
2017-10-20T12:05:36.611Z,34.73
2017-10-20T12:08:04.199Z,36.03
2017-10-20T12:10:33.175Z,32.97
2017-10-20T12:13:00.646Z,34.60
2017-10-20T12:15:28.122Z,33.80
2017-10-20T12:17:56.370Z,33.40
2017-10-20T12:20:23.862Z,33.10
2017-10-20T12:22:52.094Z,37.33
2017-10-20T12:25:19.589Z,44.00
2017-10-20T12:27:47.886Z,32.47
2017-10-20T12:30:15.424Z,35.60
2017-10-20T12:32:43.798Z,34.40
2017-10-20T12:35:12.067Z,36.17
2017-10-20T12:37:39.538Z,37.10
2017-10-20T12:40:07.790Z,36.70
2017-10-20T12:42:35.249Z,31.70
2017-10-20T12:45:02.718Z,35.80
2017-10-20T12:47:30.962Z,33.53
2017-10-20T12:49:58.534Z,34.57
2017-10-20T12:52:26.004Z,31.30
2017-10-20T12:54:53.475Z,39.50
2017-10-20T12:57:21.711Z,34.47
2017-10-20T12:59:49.183Z,34.33
2017-10-20T13:02:16.649Z,31.00
2017-10-20T13:04:44.122Z,32.20
2017-10-20T13:07:12.361Z,33.10
2017-10-20T13:09:39.858Z,37.80
2017-10-20T13:12:08.146Z,31.23
2017-10-20T13:14:35.667Z,37.13
2017-10-20T13:17:03.218Z,33.53
2017-10-20T13:19:30.690Z,38.73
2017-10-20T13:21:58.931Z,38.13
2017-10-20T13:24:26.394Z,40.53
2017-10-20T13:26:53.874Z,35.30
2017-10-20T13:29:21.343Z,41.00
2017-10-20T13:31:49.637Z,34.40
2017-10-20T13:34:17.097Z,32.40
2017-10-20T13:36:44.614Z,40.27
2017-10-20T13:39:12.082Z,52.20
2017-10-20T13:41:40.338Z,50.33
2017-10-20T13:44:07.902Z,39.33
2017-10-20T13:46:36.177Z,50.77
2017-10-20T13:49:05.160Z,31.67
2017-10-20T13:51:32.726Z,32.07
2017-10-20T13:54:00.206Z,31.77
2017-10-20T13:56:28.461Z,34.43
2017-10-20T13:58:55.939Z,31.10
2017-10-20T14:01:24.293Z,30.30
2017-10-20T14:03:51.770Z,28.53
2017-10-20T14:06:20.018Z,33.47
2017-10-20T14:08:47.581Z,28.07
2017-10-20T14:11:15.075Z,32.97
2017-10-20T14:13:43.318Z,34.53
2017-10-20T14:16:11.546Z,33.33
2017-10-20T14:18:39.018Z,47.73
2017-10-20T14:21:06.502Z,43.60
2017-10-20T14:23:34.797Z,41.50
2017-10-20T14:26:02.267Z,36.27
2017-10-20T14:28:30.527Z,33.30
2017-10-20T14:30:57.998Z,34.70
2017-10-20T14:33:26.242Z,35.10
2017-10-20T14:35:53.810Z,34.77
2017-10-20T14:38:22.065Z,33.57
2017-10-20T14:40:49.538Z,38.93
2017-10-20T14:43:17.791Z,37.10
2017-10-20T14:45:45.261Z,46.07
2017-10-20T14:48:12.731Z,41.03
2017-10-20T14:50:40.205Z,37.50
2017-10-20T14:53:08.469Z,39.17
2017-10-20T14:55:35.942Z,42.07
2017-10-20T14:58:04.245Z,33.50
2017-10-20T15:00:31.727Z,42.33
2017-10-20T15:02:59.199Z,31.83
2017-10-20T15:05:26.669Z,33.53
2017-10-20T15:07:55.055Z,35.77
2017-10-20T15:10:22.521Z,36.33
2017-10-20T15:12:50.788Z,34.70
2017-10-20T15:15:19.162Z,39.13
2017-10-20T15:17:47.429Z,39.30
2017-10-20T15:20:15.003Z,44.03
2017-10-20T15:22:43.260Z,41.43
2017-10-20T15:25:10.732Z,37.73
2017-10-20T15:27:38.210Z,36.77
2017-10-20T15:30:05.682Z,41.00
2017-10-20T15:32:33.147Z,34.33
2017-10-20T15:35:00.645Z,36.77
2017-10-20T15:37:29.617Z,31.20
2017-10-20T15:39:57.094Z,36.30
2017-10-20T15:42:24.607Z,35.20
2017-10-20T15:44:52.130Z,35.10
2017-10-20T15:47:20.377Z,43.57
2017-10-20T15:49:48.619Z,37.80
2017-10-20T15:52:16.173Z,35.13
2017-10-20T15:54:45.218Z,32.27
2017-10-20T15:57:12.741Z,33.87
2017-10-20T15:59:40.261Z,38.13
2017-10-20T16:02:07.821Z,39.57
2017-10-20T16:04:35.294Z,31.50
2017-10-20T16:07:02.773Z,33.63
2017-10-20T16:09:30.291Z,32.03
2017-10-20T16:11:57.755Z,32.73
2017-10-20T16:14:25.229Z,43.03
2017-10-20T16:16:52.744Z,38.13
2017-10-20T16:19:20.225Z,33.80
2017-10-20T16:21:47.690Z,44.97
2017-10-20T16:24:15.206Z,41.60
2017-10-20T16:26:44.252Z,43.03
2017-10-20T16:29:11.735Z,38.60
2017-10-20T16:31:39.313Z,37.23
2017-10-20T16:34:06.778Z,35.77
2017-10-20T16:36:34.252Z,40.03
2017-10-20T16:39:02.559Z,38.17
2017-10-20T16:41:30.038Z,44.90
2017-10-20T16:43:57.519Z,43.00
2017-10-20T16:46:24.997Z,41.60
2017-10-20T16:48:53.254Z,35.67
2017-10-20T16:51:20.731Z,37.10
2017-10-20T16:53:48.967Z,36.13
2017-10-20T16:56:16.442Z,35.90
2017-10-20T16:58:44.697Z,40.90
2017-10-20T17:01:12.206Z,42.17
2017-10-20T17:03:39.669Z,50.40
2017-10-20T17:06:07.186Z,42.23
2017-10-20T17:08:35.428Z,46.40
2017-10-20T17:11:02.897Z,41.77
2017-10-20T17:13:30.474Z,37.90
2017-10-20T17:15:57.952Z,37.23
2017-10-20T17:18:26.198Z,39.73
2017-10-20T17:20:53.677Z,39.80
2017-10-20T17:23:21.153Z,40.83
2017-10-20T17:25:48.689Z,37.17
2017-10-20T17:28:16.162Z,39.30
2017-10-20T17:30:44.401Z,38.70
2017-10-20T17:33:13.399Z,40.30
2017-10-20T17:35:40.871Z,38.83
2017-10-20T17:38:09.105Z,38.23
2017-10-20T17:40:36.580Z,28.97
2017-10-20T17:43:04.063Z,33.93
2017-10-20T17:45:32.300Z,39.80
2017-10-20T17:47:59.850Z,44.37
2017-10-20T17:50:27.337Z,39.03
2017-10-20T17:52:54.897Z,38.40
2017-10-20T17:55:22.373Z,33.27
2017-10-20T17:57:50.614Z,40.27
2017-10-20T18:00:18.205Z,38.03
2017-10-20T18:02:46.439Z,37.93
2017-10-20T18:05:13.914Z,42.80
2017-10-20T18:07:41.418Z,40.70
2017-10-20T18:10:08.942Z,41.83
2017-10-20T18:12:36.406Z,42.07
2017-10-20T18:15:04.673Z,33.90
2017-10-20T18:17:32.154Z,38.13
2017-10-20T18:20:00.405Z,36.87
2017-10-20T18:22:28.682Z,35.87
2017-10-20T18:24:56.262Z,33.80
2017-10-20T18:27:24.527Z,40.63
2017-10-20T18:29:52.781Z,40.20
2017-10-20T18:32:20.258Z,39.40
2017-10-20T18:34:48.517Z,43.80
2017-10-20T18:37:16.073Z,47.17
2017-10-20T18:39:43.588Z,44.67
2017-10-20T18:42:11.068Z,39.67
2017-10-20T18:44:38.557Z,38.57
2017-10-20T18:47:06.231Z,36.77
2017-10-20T18:49:34.469Z,44.90
2017-10-20T18:52:01.954Z,39.47
2017-10-20T18:54:30.202Z,36.43
2017-10-20T18:56:57.786Z,36.83
2017-10-20T18:59:25.255Z,38.87
2017-10-20T19:01:53.669Z,42.57
2017-10-20T19:04:21.134Z,33.43
2017-10-20T19:06:48.632Z,39.70
2017-10-20T19:09:16.110Z,41.33
2017-10-20T19:11:44.361Z,35.87
2017-10-20T19:14:11.846Z,42.27
2017-10-20T19:16:39.312Z,32.93
2017-10-20T19:19:06.831Z,35.80
2017-10-20T19:21:34.393Z,33.73
2017-10-20T19:24:01.957Z,31.07
2017-10-20T19:26:29.468Z,25.50
2017-10-20T19:28:56.973Z,28.70
2017-10-20T19:31:24.442Z,24.60
2017-10-20T19:33:52.677Z,28.53
2017-10-20T19:36:20.159Z,25.57
2017-10-20T19:38:47.660Z,26.07
2017-10-20T19:41:15.131Z,31.93
2017-10-20T19:43:42.641Z,42.47
2017-10-20T19:46:10.914Z,26.83
2017-10-20T19:48:39.181Z,29.23
2017-10-20T19:51:06.742Z,27.43
2017-10-20T19:53:34.205Z,28.63
2017-10-20T19:56:02.480Z,24.63
2017-10-20T19:58:30.729Z,25.90
2017-10-20T20:00:58.240Z,29.27
2017-10-20T20:03:25.714Z,24.70
2017-10-20T20:05:53.194Z,33.10
2017-10-20T20:08:20.670Z,23.70
2017-10-20T20:10:48.155Z,24.30
2017-10-20T20:13:16.402Z,29.20
2017-10-20T20:15:43.985Z,30.50
2017-10-20T20:18:12.238Z,22.00
2017-10-20T20:20:40.514Z,26.97
2017-10-20T20:23:08.790Z,31.10
2017-10-20T20:25:36.253Z,31.67
2017-10-20T20:28:04.498Z,23.73
2017-10-20T20:30:32.899Z,24.13
2017-10-20T20:33:00.371Z,26.37
2017-10-20T20:35:28.597Z,24.30
2017-10-20T20:37:56.079Z,21.70
2017-10-20T20:40:23.542Z,29.03
2017-10-20T20:42:51.055Z,21.40
2017-10-20T20:45:18.554Z,19.03
2017-10-20T20:47:46.113Z,20.93
2017-10-20T20:50:13.682Z,23.77
2017-10-20T20:52:41.949Z,17.93
2017-10-20T20:55:09.459Z,16.80
2017-10-20T20:57:36.969Z,17.33
2017-10-20T21:00:04.439Z,14.37
2017-10-20T21:02:32.682Z,19.83
2017-10-20T21:05:00.187Z,17.90
2017-10-20T21:07:27.710Z,20.73
2017-10-20T21:09:55.185Z,19.73
2017-10-20T21:12:23.451Z,21.30
2017-10-20T21:14:51.003Z,14.90
2017-10-20T21:17:18.466Z,17.87
2017-10-20T21:19:51.802Z,16.60
2017-10-20T21:22:19.365Z,19.90
2017-10-20T21:24:46.869Z,18.70
2017-10-20T21:27:14.431Z,17.47
2017-10-20T21:29:41.987Z,18.47
2017-10-20T21:32:09.464Z,17.97
2017-10-20T21:34:37.718Z,16.27
2017-10-20T21:37:05.178Z,21.53
2017-10-20T21:39:33.433Z,15.10
2017-10-20T21:42:00.992Z,16.30
2017-10-20T21:44:28.458Z,21.90
2017-10-20T21:46:55.926Z,18.43
2017-10-20T21:49:23.397Z,21.00
2017-10-20T21:51:51.638Z,25.63
2017-10-20T21:54:19.216Z,19.00
2017-10-20T21:56:46.726Z,20.70
2017-10-20T21:59:14.208Z,20.10
2017-10-20T22:01:41.674Z,19.77
2017-10-20T22:04:09.247Z,22.03
2017-10-20T22:06:36.807Z,22.67
2017-10-20T22:09:04.282Z,22.00
2017-10-20T22:11:32.915Z,22.83
2017-10-20T22:14:00.382Z,18.23
2017-10-20T22:16:27.862Z,19.73
2017-10-20T22:18:55.338Z,17.57
2017-10-20T22:21:23.587Z,19.10
2017-10-20T22:23:51.151Z,19.40
2017-10-20T22:26:18.702Z,15.37
2017-10-20T22:28:46.176Z,18.87
2017-10-20T22:31:14.433Z,23.70
2017-10-20T22:33:41.999Z,18.37
2017-10-20T22:36:09.523Z,18.00
2017-10-20T22:38:37.009Z,17.53
2017-10-20T22:41:04.476Z,19.37
2017-10-20T22:43:31.951Z,15.40
2017-10-20T22:46:00.209Z,15.43
2017-10-20T22:48:27.758Z,18.17
2017-10-20T22:50:55.318Z,19.17
2017-10-20T22:53:22.876Z,25.03
2017-10-20T22:55:50.440Z,16.83
2017-10-20T22:58:17.998Z,17.37
2017-10-20T23:00:45.466Z,18.63
2017-10-20T23:03:13.821Z,19.40
2017-10-20T23:05:41.290Z,20.57
2017-10-20T23:08:08.761Z,20.10
2017-10-20T23:10:37.018Z,15.00
2017-10-20T23:13:04.486Z,18.00
2017-10-20T23:15:32.042Z,15.93
2017-10-20T23:18:00.368Z,16.20
2017-10-20T23:20:27.868Z,18.73
2017-10-20T23:22:55.426Z,18.50
2017-10-20T23:25:22.908Z,15.83
2017-10-20T23:27:51.262Z,17.40
2017-10-20T23:30:18.827Z,21.53
2017-10-20T23:32:46.297Z,16.20
2017-10-20T23:35:14.538Z,15.70
2017-10-20T23:37:42.106Z,16.53
2017-10-20T23:40:10.389Z,18.10
2017-10-20T23:42:37.945Z,16.43
2017-10-20T23:45:05.430Z,19.80
2017-10-20T23:47:33.657Z,16.20
2017-10-20T23:50:01.133Z,13.30
2017-10-20T23:52:28.697Z,15.03
2017-10-20T23:54:56.175Z,24.20
2017-10-20T23:57:24.413Z,18.80
2017-10-20T23:59:51.881Z,15.53
